EW7774 Weather Reports


Display with metric or nautical units.
time (UTC)temp
F
wind
direction
speed
MPH
gust
MPH
rain 1hr
in
rain 24hr
in
rain mn
in
humidity
%
barometer
mb
20210620133533 77 0 0.0 0.0 0.00 0.01 0.01 84 1011.1
20210620133326 77 202 0.0 0.0 0.00 0.01 0.01 85 1011.5
20210620133111 77 0 0.0 1.0 0.00 0.01 0.01 85 1011.3
20210620132818 77 202 0.0 1.0 0.00 0.01 0.01 85 1011.6
20210620132525 76 0 0.0 1.0 0.00 0.01 0.01 85 1011.4
20210620132329 76 202 0.0 1.0 0.00 0.01 0.01 87 1011.7
20210620132034 76 0 0.0 0.0 0.00 0.01 0.01 87 1011.5
20210620131818 76 132 0.0 0.0 0.00 0.01 0.01 87 1011.9
20210620131636 75 0 0.0 0.0 0.00 0.01 0.01 88 1011.6
20210620131334 76 131 0.0 0.0 0.00 0.01 0.01 90 1011.8
20210620131025 75 0 0.0 1.0 0.00 0.01 0.01 88 1011.6
20210620130823 75 131 0.0 1.0 0.00 0.01 0.01 90 1011.9
20210620130525 74 0 0.0 1.0 0.00 0.01 0.01 91 1011.6
20210620130329 75 235 0.0 0.0 0.00 0.01 0.01 92 1012.0
20210620130055 74 0 0.0 0.0 0.00 0.01 0.01 91 1011.7
20210620125822 74 236 0.0 0.0 0.00 0.01 0.01 92 1012.0
20210620125530 73 0 0.0 0.0 0.00 0.01 0.01 92 1011.7
20210620125331 74 279 0.0 0.0 0.00 0.01 0.01 93 1012.0
20210620125026 73 0 0.0 0.0 0.00 0.01 0.01 92 1011.7
20210620124818 73 279 0.0 0.0 0.00 0.01 0.01 93 1012.0
20210620124554 73 0 0.0 0.0 0.00 0.01 0.01 92 1011.7
20210620124328 73 279 0.0 0.0 0.00 0.01 0.01 93 1012.0
20210620124035 72 0 0.0 0.0 0.00 0.01 0.01 93 1011.8
20210620123821 73 279 0.0 0.0 0.00 0.01 0.01 94 1012.1
20210620123538 72 0 0.0 0.0 0.00 0.01 0.01 93 1011.8
20210620123332 73 279 0.0 0.0 0.00 0.01 0.01 94 1012.0
20210620123105 72 0 0.0 0.0 0.00 0.01 0.01 94 1011.7
20210620122823 72 279 0.0 0.0 0.00 0.01 0.01 94 1012.1
20210620122525 72 0 0.0 0.0 0.00 0.01 0.01 94 1011.8
20210620122337 72 279 0.0 0.0 0.00 0.01 0.01 95 1012.1
20210620122037 71 0 0.0 0.0 0.00 0.01 0.01 94 1011.8
20210620121826 72 279 0.0 0.0 0.00 0.01 0.01 95 1012.1
20210620121548 71 0 0.0 0.0 0.00 0.01 0.01 95 1011.8
20210620121334 72 279 0.0 0.0 0.00 0.01 0.01 96 1012.1
20210620121024 71 0 0.0 0.0 0.00 0.01 0.01 95 1011.7
20210620120822 72 279 0.0 0.0 0.00 0.01 0.01 96 1012.1
20210620120531 71 0 0.0 0.0 0.00 0.01 0.01 96 1011.7
20210620120331 71 279 0.0 0.0 0.00 0.01 0.01 96 1012.1
20210620120128 71 0 0.0 0.0 0.00 0.01 0.01 96 1011.8
20210620115822 71 279 0.0 0.0 0.00 0.01 0.01 96 1012.0
20210620115525 71 0 0.0 0.0 0.00 0.01 0.01 96 1011.7
20210620115315 71 279 0.0 0.0 0.00 0.01 0.01 96 1012.1
20210620115037 70 0 0.0 0.0 0.00 0.01 0.01 96 1011.7
20210620114814 71 279 0.0 0.0 0.00 0.01 0.01 96 1012.0
20210620114604 70 0 0.0 0.0 0.00 0.01 0.01 96 1011.7
20210620114327 71 279 0.0 0.0 0.00 0.01 0.01 96 1012.0
20210620114025 70 0 0.0 0.0 0.00 0.01 0.01 96 1011.6
20210620113817 70 279 0.0 0.0 0.00 0.01 0.01 96 1011.9
20210620113524 70 0 0.0 0.0 0.00 0.01 0.01 96 1011.5
20210620113328 70 279 0.0 0.0 0.00 0.01 0.01 96 1011.9
20210620113046 69 0 0.0 0.0 0.00 0.01 0.01 95 1011.6
20210620112835 70 279 0.0 0.0 0.00 0.01 0.01 96 1011.9
20210620112524 69 0 0.0 0.0 0.00 0.01 0.01 95 1011.5
20210620112325 69 279 0.0 0.0 0.00 0.01 0.01 96 1011.7
20210620112025 69 0 0.0 0.0 0.00 0.01 0.01 95 1011.4
20210620111834 69 279 0.0 0.0 0.00 0.01 0.01 96 1011.6
20210620111535 68 0 0.0 0.0 0.00 0.01 0.01 95 1011.3
20210620111325 69 279 0.0 0.0 0.00 0.01 0.01 96 1011.6
20210620111033 68 0 0.0 0.0 0.00 0.01 0.01 95 1011.2
20210620110833 68 279 0.0 0.0 0.00 0.01 0.01 95 1011.5
20210620110525 68 0 0.0 0.0 0.00 0.01 0.01 95 1011.2
20210620110328 68 279 0.0 0.0 0.00 0.01 0.01 95 1011.4
20210620110053 68 0 0.0 0.0 0.00 0.01 0.01 95 1011.1
20210620105816 68 279 0.0 0.0 0.00 0.01 0.01 95 1011.4
20210620105524 67 0 0.0 0.0 0.00 0.01 0.01 95 1011.1
20210620105329 68 279 0.0 0.0 0.00 0.01 0.01 95 1011.3
20210620105025 67 0 0.0 0.0 0.00 0.01 0.01 94 1010.9
20210620104819 68 279 0.0 0.0 0.00 0.01 0.01 95 1011.2
20210620104619 67 0 0.0 0.0 0.00 0.01 0.01 94 1010.8
20210620104329 68 279 0.0 0.0 0.00 0.01 0.01 95 1011.1
20210620104030 67 0 0.0 0.0 0.00 0.01 0.01 94 1010.8
20210620103821 67 279 0.0 0.0 0.00 0.01 0.01 95 1011.1
20210620103525 67 0 0.0 0.0 0.00 0.01 0.01 94 1010.8
20210620103331 67 279 0.0 0.0 0.00 0.01 0.01 94 1011.0
20210620103048 67 0 0.0 0.0 0.00 0.01 0.01 94 1010.6
20210620102822 67 279 0.0 0.0 0.00 0.01 0.01 94 1010.9
20210620102541 67 0 0.0 0.0 0.00 0.01 0.01 94 1010.3
20210620102332 67 279 0.0 0.0 0.00 0.01 0.01 94 1010.6
20210620102024 67 0 0.0 0.0 0.00 0.01 0.01 94 1010.2
20210620101825 67 279 0.0 0.0 0.00 0.01 0.01 94 1010.7
20210620101557 67 0 0.0 0.0 0.00 0.01 0.01 94 1010.4
20210620101337 67 279 0.0 0.0 0.00 0.01 0.01 94 1010.8
20210620101024 67 0 0.0 0.0 0.00 0.01 0.01 94 1010.4
20210620100826 67 279 0.0 0.0 0.00 0.01 0.01 94 1010.8
20210620100532 67 0 0.0 0.0 0.00 0.01 0.01 94 1010.4
20210620100333 67 279 0.0 0.0 0.00 0.01 0.01 94 1010.7
20210620100049 67 0 0.0 0.0 0.00 0.01 0.01 94 1010.3
20210620095823 67 279 0.0 0.0 0.00 0.01 0.01 94 1010.6
20210620095525 67 0 0.0 0.0 0.00 0.01 0.01 93 1010.2
20210620095335 67 279 0.0 0.0 0.00 0.01 0.01 94 1010.5
20210620095025 67 0 0.0 0.0 0.00 0.01 0.01 93 1010.1
20210620094824 67 279 0.0 0.0 0.00 0.01 0.01 94 1010.6
20210620094541 67 0 0.0 0.0 0.00 0.01 0.01 93 1010.2
20210620094334 67 279 0.0 0.0 0.00 0.01 0.01 94 1010.6
20210620094033 67 0 0.0 0.0 0.00 0.01 0.01 93 1010.2
20210620093829 67 279 0.0 0.0 0.00 0.01 0.01 93 1010.6
20210620093526 67 0 0.0 0.0 0.00 0.01 0.01 93 1010.2
20210620093319 67 279 0.0 0.0 0.00 0.01 0.01 93 1010.7
20210620093053 67 0 0.0 0.0 0.00 0.01 0.01 93 1010.3
20210620092829 68 279 0.0 0.0 0.00 0.01 0.01 93 1010.7
20210620092537 67 0 0.0 0.0 0.00 0.01 0.01 93 1010.2
20210620092322 68 279 0.0 0.0 0.00 0.01 0.01 93 1010.7
20210620092026 67 0 0.0 0.0 0.00 0.01 0.01 93 1010.2
20210620091835 68 279 0.0 0.0 0.00 0.01 0.01 94 1010.6
20210620091545 67 0 0.0 0.0 0.00 0.01 0.01 93 1010.1
20210620091325 68 279 0.0 0.0 0.00 0.01 0.01 93 1010.5
20210620091025 67 0 0.0 0.0 0.00 0.01 0.01 93 1010.1
20210620090834 68 279 0.0 0.0 0.00 0.01 0.01 94 1010.5
20210620090524 67 0 0.0 0.0 0.00 0.01 0.01 93 1010.0
20210620090323 68 279 0.0 0.0 0.00 0.01 0.01 93 1010.4
20210620090105 67 0 0.0 0.0 0.00 0.01 0.01 93 1010.0
20210620085828 68 279 0.0 0.0 0.00 0.01 0.01 93 1010.4
20210620085525 68 0 0.0 0.0 0.00 0.01 0.01 93 1009.9
20210620085323 68 279 0.0 0.0 0.00 0.01 0.01 93 1010.3
20210620085031 68 0 0.0 0.0 0.00 0.01 0.01 93 1009.8
20210620084834 68 279 0.0 0.0 0.00 0.01 0.01 93 1010.2
20210620084534 68 0 0.0 0.0 0.00 0.01 0.01 93 1009.8
20210620084322 68 279 0.0 0.0 0.00 0.01 0.01 93 1010.1
20210620084036 68 0 0.0 0.0 0.00 0.01 0.01 93 1009.8
20210620083832 68 279 0.0 0.0 0.00 0.01 0.01 93 1010.1
20210620083547 68 0 0.0 0.0 0.00 0.01 0.01 93 1009.8
20210620083325 68 279 0.0 0.0 0.00 0.01 0.01 93 1010.0
20210620083107 68 0 0.0 0.0 0.00 0.01 0.01 93 1009.6
20210620082835 69 279 0.0 0.0 0.00 0.01 0.01 93 1010.0
20210620082524 68 0 0.0 0.0 0.00 0.01 0.01 93 1009.7
20210620082322 69 279 0.0 0.0 0.00 0.01 0.01 93 1010.1
20210620082032 68 0 0.0 0.0 0.00 0.01 0.01 93 1009.7
20210620081830 69 279 0.0 0.0 0.00 0.01 0.01 93 1010.0
20210620081724 68 0 0.0 0.0 0.00 0.01 0.01 93 1009.6
20210620081327 69 279 0.0 0.0 0.00 0.01 0.01 93 1009.9
20210620081027 68 0 0.0 0.0 0.00 0.01 0.01 93 1009.7
20210620080840 69 279 0.0 0.0 0.00 0.01 0.01 93 1010.1
20210620080533 68 0 0.0 0.0 0.00 0.01 0.01 93 1009.7
20210620080322 69 279 0.0 0.0 0.00 0.01 0.01 93 1010.0
20210620080112 69 0 0.0 0.0 0.00 0.01 0.01 93 1009.7
20210620075832 69 279 0.0 0.0 0.00 0.01 0.01 93 1010.0
20210620075525 69 0 0.0 0.0 0.00 0.01 0.01 93 1009.7
20210620075325 69 279 0.0 0.0 0.00 0.01 0.01 93 1010.0
20210620075037 69 0 0.0 0.0 0.00 0.01 0.01 93 1009.8
20210620074815 69 279 0.0 0.0 0.00 0.01 0.01 93 1009.9
20210620074545 69 0 0.0 0.0 0.00 0.01 0.01 93 1009.7
20210620074329 69 279 0.0 0.0 0.00 0.01 0.01 93 1010.0
20210620074034 69 0 0.0 0.0 0.00 0.01 0.01 93 1009.7
20210620073816 69 279 0.0 0.0 0.00 0.01 0.01 93 1009.9
20210620073527 69 0 0.0 0.0 0.00 0.01 0.01 93 1009.7
20210620073327 70 279 0.0 0.0 0.00 0.01 0.01 93 1009.9
20210620073059 69 0 0.0 0.0 0.00 0.01 0.01 93 1009.7
20210620072820 70 279 0.0 0.0 0.00 0.01 0.01 93 1009.9
20210620072524 69 0 0.0 0.0 0.00 0.01 0.01 93 1009.8
20210620072330 70 279 0.0 0.0 0.00 0.01 0.01 93 1010.0
20210620072024 69 0 0.0 0.0 0.00 0.01 0.01 93 1009.8
20210620071819 70 279 0.0 0.0 0.00 0.01 0.01 93 1009.9
20210620071610 69 0 0.0 0.0 0.00 0.01 0.01 93 1009.7
20210620071327 70 279 0.0 0.0 0.00 0.01 0.01 93 1009.9
20210620071026 70 0 0.0 0.0 0.00 0.01 0.01 93 1009.7
20210620070818 70 279 0.0 0.0 0.00 0.01 0.01 93 1009.8
20210620070525 70 0 0.0 0.0 0.00 0.01 0.01 92 1009.8
20210620070327 70 279 0.0 0.0 0.00 0.01 0.01 93 1009.8
20210620070120 70 0 0.0 0.0 0.00 0.01 0.01 92 1009.8
20210620065817 70 279 0.0 0.0 0.00 0.01 0.01 93 1009.9
20210620065525 70 0 0.0 0.0 0.00 0.01 0.01 92 1009.9
20210620065326 70 279 0.0 0.0 0.00 0.01 0.01 93 1010.0
20210620065025 70 0 0.0 0.0 0.00 0.01 0.01 92 1010.0
20210620064820 70 279 0.0 0.0 0.00 0.01 0.01 93 1010.1
20210620064543 70 0 0.0 0.0 0.00 0.01 0.01 92 1010.0
20210620064330 70 279 0.0 0.0 0.00 0.01 0.01 93 1010.0
20210620064034 70 0 0.0 0.0 0.00 0.01 0.01 92 1010.1
20210620063819 71 279 0.0 0.0 0.00 0.01 0.01 93 1010.1
20210620063535 70 0 0.0 0.0 0.00 0.01 0.01 92 1010.1
20210620063329 71 279 0.0 0.0 0.01 0.01 0.01 93 1010.1
20210620063035 70 0 0.0 0.0 0.01 0.01 0.01 92 1010.0
20210620062835 71 279 0.0 0.0 0.01 0.01 0.01 93 1010.0
20210620062611 70 0 0.0 0.0 0.01 0.01 0.01 92 1010.0
20210620062324 71 279 0.0 0.0 0.01 0.01 0.01 93 1009.8
20210620062025 70 0 0.0 0.0 0.01 0.01 0.01 92 1009.9
20210620061813 71 279 0.0 0.0 0.01 0.01 0.01 93 1009.8
20210620061536 71 0 0.0 0.0 0.01 0.01 0.01 92 1009.9
20210620061326 71 279 0.0 0.0 0.01 0.01 0.01 93 1009.9
20210620061025 71 0 0.0 0.0 0.01 0.01 0.01 92 1010.0
20210620060835 71 279 0.0 0.0 0.01 0.01 0.01 93 1010.0
20210620060539 71 0 0.0 0.0 0.01 0.01 0.01 92 1010.1
20210620060329 71 279 0.0 0.0 0.01 0.01 0.01 93 1010.0
20210620060045 71 0 0.0 0.0 0.01 0.01 0.01 92 1010.1
20210620055821 72 279 0.0 0.0 0.01 0.01 0.01 93 1010.1
20210620055534 71 0 0.0 0.0 0.01 0.01 0.01 92 1010.1
20210620055328 72 279 0.0 0.0 0.01 0.01 0.01 93 1010.1
20210620055029 71 0 0.0 0.0 0.01 0.01 0.01 92 1010.3
20210620054821 72 279 0.0 0.0 0.01 0.01 0.01 93 1010.3
20210620054646 71 0 0.0 0.0 0.01 0.01 0.01 93 1010.5
20210620054330 72 279 0.0 0.0 0.01 0.01 0.01 93 1010.5
20210620054029 71 0 0.0 0.0 0.01 0.01 0.01 93 1010.6
20210620053817 72 279 0.0 0.0 0.01 0.01 0.01 93 1010.5
20210620053525 71 0 0.0 0.0 0.01 0.01 0.01 93 1010.6
20210620053327 72 279 0.0 0.0 0.00 0.00 0.00 93 1010.5
20210620053105 71 0 0.0 0.0 0.00 0.00 0.00 93 1010.7
20210620052817 72 279 0.0 0.0 0.00 0.00 0.00 93 1010.5
20210620052524 71 0 0.0 0.0 0.00 0.00 0.00 93 1010.4
20210620052330 72 279 0.0 0.0 0.00 0.00 0.00 93 1010.3
20210620052035 71 0 0.0 0.0 0.00 0.00 0.00 93 1010.1
20210620051824 72 279 0.0 0.0 0.00 0.00 0.00 93 1010.1
20210620051621 71 0 0.0 0.0 0.00 0.00 0.00 93 1010.2
20210620051314 72 279 0.0 0.0 0.00 0.00 0.00 93 1010.1
20210620051024 71 0 0.0 0.0 0.00 0.00 0.00 93 1010.3
20210620050827 72 279 0.0 0.0 0.00 0.00 0.00 93 1010.3
20210620050529 71 0 0.0 0.0 0.00 0.00 0.00 92 1010.3
20210620050319 72 279 0.0 0.0 0.00 0.00 0.00 93 1010.3
20210620050104 71 0 0.0 0.0 0.00 0.00 0.00 92 1010.3
20210620045829 72 279 0.0 0.0 0.00 0.00 0.00 93 1010.1
20210620045551 71 0 0.0 0.0 0.00 0.00 0.00 92 1010.2
20210620045319 72 279 0.0 0.0 0.00 0.00 0.00 93 1010.3
20210620045024 71 0 0.0 0.0 0.00 0.00 0.00 92 1010.4
20210620044829 72 279 0.0 0.0 0.00 0.00 0.00 93 1010.2
20210620044538 71 0 0.0 0.0 0.00 0.00 0.00 92 1010.2
20210620044319 72 279 0.0 0.0 0.00 0.00 0.00 93 1010.1
20210620044024 71 0 0.0 0.0 0.00 0.00 0.00 92 1010.2
20210620043833 72 279 0.0 0.0 0.00 0.00 0.00 93 1010.1
20210620043605 71 0 0.0 0.0 0.00 0.00 0.00 92 1010.1
20210620043323 72 279 0.0 0.0 0.00 0.00 0.00 93 1010.1
20210620043112 71 0 0.0 0.0 0.00 0.00 0.00 92 1010.1
20210620042832 72 279 0.0 0.0 0.00 0.00 0.00 93 1010.2
20210620042541 71 0 0.0 0.0 0.00 0.00 0.00 92 1010.2
20210620042321 72 279 0.0 0.0 0.00 0.00 0.00 93 1010.1
20210620042023 71 0 0.0 0.0 0.00 0.00 0.00 92 1010.2
20210620041834 72 279 0.0 0.0 0.00 0.00 0.00 93 1010.2
20210620041533 71 0 0.0 0.0 0.00 0.00 0.00 92 1010.3
20210620041324 72 279 0.0 0.0 0.00 0.00 0.00 93 1010.3
20210620041023 71 0 0.0 0.0 0.00 0.00 0.00 92 1010.2
20210620040814 72 279 0.0 0.0 0.00 0.00 0.00 93 1010.3
20210620040531 72 0 0.0 0.0 0.00 0.00 0.00 92 1010.2
20210620040327 72 279 0.0 0.0 0.00 0.00 0.00 93 1010.3
20210620040102 72 0 0.0 0.0 0.00 0.00 0.00 92 1010.3
20210620035821 72 279 0.0 0.0 0.00 0.00 0.00 93 1010.3
20210620035535 72 0 0.0 0.0 0.00 0.00 0.00 92 1010.3
20210620035334 72 279 0.0 0.0 0.00 0.00 0.00 93 1010.4
20210620035028 72 0 0.0 0.0 0.00 0.00 0.00 92 1010.3
20210620034824 72 279 0.0 0.0 0.00 0.00 0.00 92 1010.4
20210620034600 72 0 0.0 0.0 0.00 0.00 0.00 92 1010.3
20210620034334 72 279 0.0 0.0 0.00 0.00 0.00 92 1010.5
20210620034026 72 0 0.0 0.0 0.00 0.00 0.00 92 1010.2
20210620033824 72 280 0.0 0.0 0.00 0.00 0.00 92 1010.4
20210620033525 72 0 0.0 0.0 0.00 0.00 0.00 92 1010.3
20210620033334 72 279 0.0 0.0 0.00 0.00 0.00 92 1010.4
20210620033047 72 0 0.0 0.0 0.00 0.00 0.00 91 1010.3
20210620032824 72 279 0.0 0.0 0.00 0.00 0.00 92 1010.2
20210620032525 72 0 0.0 0.0 0.00 0.00 0.00 91 1010.1
20210620032334 73 279 0.0 0.0 0.00 0.00 0.00 92 1010.3
20210620032025 72 0 0.0 0.0 0.00 0.00 0.00 91 1010.1
20210620031823 73 279 0.0 0.0 0.00 0.00 0.00 92 1010.3
20210620031619 72 0 0.0 0.0 0.00 0.00 0.00 91 1010.1
20210620031319 73 279 0.0 0.0 0.00 0.00 0.00 92 1010.3
20210620031023 72 0 0.0 0.0 0.00 0.00 0.00 92 1010.1
20210620030828 73 279 0.0 0.0 0.00 0.00 0.00 92 1010.4
20210620030524 72 0 0.0 0.0 0.00 0.00 0.00 91 1010.2
20210620030333 73 279 0.0 0.0 0.00 0.00 0.00 92 1010.4
20210620030041 72 0 0.0 0.0 0.00 0.00 0.00 91 1010.2
20210620025821 73 279 0.0 0.0 0.00 0.00 0.00 92 1010.4
20210620025524 72 0 0.0 0.0 0.00 0.00 0.00 91 1010.3
20210620025331 73 279 0.0 0.0 0.00 0.00 0.00 92 1010.6
20210620025024 73 0 0.0 0.0 0.00 0.00 0.00 91 1010.3
20210620024822 73 279 0.0 0.0 0.00 0.00 0.00 91 1010.5
20210620024551 73 0 0.0 0.0 0.00 0.00 0.00 91 1010.4
20210620024327 73 279 0.0 0.0 0.00 0.00 0.00 91 1010.6
20210620024024 73 0 0.0 0.0 0.00 0.00 0.00 91 1010.3
20210620023817 73 279 0.0 0.0 0.00 0.00 0.00 91 1010.5
20210620023525 73 0 0.0 0.0 0.00 0.00 0.00 91 1010.3
20210620023326 73 279 0.0 0.0 0.00 0.00 0.00 91 1010.5
20210620023032 73 0 0.0 0.0 0.00 0.00 0.00 91 1010.4
20210620022824 73 279 0.0 0.0 0.00 0.00 0.00 91 1010.6
20210620022533 73 0 0.0 0.0 0.00 0.00 0.00 91 1010.4
20210620022334 74 279 0.0 0.0 0.00 0.00 0.00 91 1010.5
20210620022024 73 0 0.0 0.0 0.00 0.00 0.00 91 1010.4
20210620021825 74 279 0.0 0.0 0.00 0.00 0.00 91 1010.5
20210620021549 73 0 0.0 0.0 0.00 0.00 0.00 91 1010.4
20210620021316 74 279 0.0 0.0 0.00 0.00 0.00 91 1010.4
20210620021036 73 0 0.0 0.0 0.00 0.00 0.00 91 1010.3
20210620020826 74 279 0.0 0.0 0.00 0.00 0.00 91 1010.5
20210620020543 73 0 0.0 0.0 0.00 0.00 0.00 91 1010.3
20210620020316 74 279 0.0 0.0 0.00 0.00 0.00 91 1010.5
20210620020041 73 0 0.0 0.0 0.00 0.00 0.00 91 1010.3
20210620015827 74 279 0.0 0.0 0.00 0.00 0.00 91 1010.4
20210620015524 74 0 0.0 0.0 0.00 0.00 0.00 91 1010.2
20210620015316 74 279 0.0 0.0 0.00 0.00 0.00 91 1010.4
20210620015025 74 0 0.0 0.0 0.00 0.00 0.00 91 1010.2
20210620014830 74 279 0.0 0.0 0.00 0.00 0.00 91 1010.4
20210620014633 74 0 0.0 0.0 0.00 0.00 0.00 91 1010.2
20210620014321 74 279 0.0 0.0 0.00 0.00 0.00 91 1010.3
20210620014026 74 0 0.0 0.0 0.00 0.00 0.00 91 1010.1
20210620013831 74 279 0.0 0.0 0.00 0.00 0.00 91 1010.2
20210620013531 74 0 0.0 0.0 0.00 0.00 0.00 90 1010.0
20210620013317 74 279 0.0 0.0 0.00 0.00 0.00 91 1010.1
20210620013106 74 0 0.0 0.0 0.00 0.00 0.00 90 1009.9
20210620012831 74 279 0.0 0.0 0.00 0.00 0.00 91 1010.0
20210620012547 74 0 0.0 0.0 0.00 0.00 0.00 90 1009.9
20210620012323 74 279 0.0 0.0 0.00 0.00 0.00 91 1009.9
20210620012034 74 0 0.0 0.0 0.00 0.00 0.00 90 1009.8
20210620011817 74 279 0.0 0.0 0.00 0.00 0.00 90 1009.8
20210620011544 74 0 0.0 0.0 0.00 0.00 0.00 90 1009.8
20210620011329 75 279 0.0 0.0 0.00 0.00 0.00 91 1009.9
20210620011033 74 0 0.0 0.0 0.00 0.00 0.00 90 1009.9
20210620010823 75 279 0.0 0.0 0.00 0.00 0.00 90 1009.9
20210620010536 74 0 0.0 0.0 0.00 0.00 0.00 90 1009.8
20210620010334 75 279 0.0 0.0 0.00 0.00 0.00 90 1009.9
20210620010127 74 0 0.0 0.0 0.00 0.00 0.00 89 1009.8
20210620005824 75 279 0.0 0.0 0.00 0.00 0.00 89 1009.9
20210620005550 74 0 0.0 0.0 0.00 0.00 0.00 89 1009.7
20210620005313 75 279 0.0 0.0 0.00 0.00 0.00 89 1009.8
20210620005033 75 0 0.0 0.0 0.00 0.00 0.00 89 1009.8
20210620004826 75 279 0.0 0.0 0.00 0.00 0.00 89 1009.9
20210620004619 75 0 0.0 0.0 0.00 0.00 0.00 88 1009.8
20210620004319 75 279 0.0 0.0 0.00 0.00 0.00 89 1009.8
20210620004025 75 0 0.0 0.0 0.00 0.00 0.00 88 1009.8
20210620003832 75 279 0.0 0.0 0.00 0.00 0.00 89 1009.8
20210620003523 75 0 0.0 0.0 0.00 0.00 0.00 88 1009.7
20210620003326 76 279 0.0 0.0 0.00 0.00 0.00 88 1009.8
20210620003037 75 0 0.0 0.0 0.00 0.00 0.00 88 1009.7
20210620002824 76 279 0.0 0.0 0.00 0.00 0.00 88 1009.9
20210620002525 76 0 0.0 0.0 0.00 0.00 0.00 88 1009.7
20210620002333 76 279 0.0 0.0 0.00 0.00 0.00 88 1009.8
20210620002023 76 0 0.0 0.0 0.00 0.00 0.00 87 1009.6
20210620001822 76 279 0.0 0.0 0.00 0.00 0.00 88 1009.7
20210620001546 76 0 0.0 0.0 0.00 0.00 0.00 87 1009.6
20210620001316 77 279 0.0 0.0 0.00 0.00 0.00 87 1009.7
20210620001024 76 0 0.0 0.0 0.00 0.00 0.00 86 1009.5
20210620000826 77 279 0.0 0.0 0.00 0.00 0.00 86 1009.6
20210620000524 76 0 0.0 0.0 0.00 0.00 0.00 85 1009.5
20210620000317 77 279 0.0 0.0 0.00 0.00 0.00 86 1009.6
20210620000032 77 0 0.0 0.0 0.00 0.00 0.00 85 1009.5
20210619235831 77 279 0.0 0.0 0.00 0.00 0.00 85 1009.5
20210619235523 77 0 0.0 0.0 0.00 0.00 0.00 85 1009.3
20210619235325 78 279 0.0 0.0 0.00 0.00 0.00 85 1009.5
20210619235024 77 0 0.0 0.0 0.00 0.00 0.00 84 1009.4
20210619234819 78 279 0.0 0.0 0.00 0.00 0.00 84 1009.5
20210619234534 78 0 0.0 0.0 0.00 0.00 0.00 83 1009.4
20210619234329 78 279 0.0 0.0 0.00 0.00 0.00 83 1009.5
20210619234026 78 0 0.0 0.0 0.00 0.00 0.00 81 1009.4
20210619233821 79 279 0.0 0.0 0.00 0.00 0.00 81 1009.4
20210619233524 79 0 0.0 0.0 0.00 0.00 0.00 81 1009.2
20210619233331 79 279 0.0 0.0 0.00 0.00 0.00 81 1009.3
20210619233040 79 0 0.0 0.0 0.00 0.00 0.00 79 1009.4
20210619232821 80 279 0.0 0.0 0.00 0.00 0.00 79 1009.5
20210619232527 80 0 0.0 0.0 0.00 0.00 0.00 77 1009.7
20210619232332 80 281 0.0 0.0 0.00 0.00 0.00 78 1009.6
20210619232047 80 0 0.0 0.0 0.00 0.00 0.00 74 1009.6
20210619231825 80 281 0.0 0.0 0.00 0.00 0.00 74 1009.6
20210619231548 80 0 0.0 0.0 0.00 0.00 0.00 74 1009.6
20210619231316 81 281 0.0 0.0 0.00 0.00 0.00 74 1009.5
20210619231024 80 0 0.0 0.0 0.00 0.00 0.00 73 1009.6
20210619230828 81 281 0.0 0.0 0.00 0.00 0.00 73 1009.7
20210619230526 80 0 0.0 0.0 0.00 0.00 0.00 73 1009.7
20210619230324 81 281 0.0 0.0 0.00 0.00 0.00 72 1009.8
20210619230035 80 0 0.0 0.0 0.00 0.00 0.00 71 1009.7
20210619225834 81 281 0.0 0.0 0.00 0.00 0.00 72 1009.8
20210619225526 80 0 0.0 1.0 0.00 0.00 0.00 71 1009.8
20210619225324 81 281 0.0 1.0 0.00 0.00 0.00 72 1009.9
20210619225025 80 0 0.0 1.0 0.00 0.00 0.00 72 1009.9
20210619224833 81 281 0.0 1.0 0.00 0.00 0.00 73 1010.0
20210619224552 80 0 0.0 1.0 0.00 0.00 0.00 71 1009.9
20210619224323 81 346 0.0 0.0 0.00 0.00 0.00 72 1009.8
20210619224023 80 0 0.0 0.0 0.00 0.00 0.00 71 1009.7
20210619223833 81 346 0.0 0.0 0.00 0.00 0.00 72 1009.8
20210619223523 80 0 0.0 0.0 0.00 0.00 0.00 71 1009.6
20210619223323 81 346 0.0 0.0 0.00 0.00 0.00 73 1009.7
20210619223107 80 0 0.0 0.0 0.00 0.00 0.00 70 1009.6
20210619222833 81 346 0.0 0.0 0.00 0.00 0.00 72 1009.6
20210619222525 80 0 0.0 0.0 0.00 0.00 0.00 71 1009.6
20210619222327 81 346 0.0 1.0 0.00 0.00 0.00 71 1009.5
20210619222041 80 0 0.0 1.0 0.00 0.00 0.00 71 1009.6
20210619221816 81 345 0.0 1.0 0.00 0.00 0.00 72 1009.6
20210619221626 80 0 0.0 1.0 0.00 0.00 0.00 72 1009.6
20210619221324 81 336 0.0 0.0 0.00 0.00 0.00 71 1009.5
20210619221026 80 0 0.0 0.0 0.00 0.00 0.00 70 1009.4
20210619220834 81 272 0.0 1.0 0.00 0.00 0.00 71 1009.4
20210619220531 80 0 0.0 1.0 0.00 0.00 0.00 71 1009.5
20210619220323 80 271 0.0 1.0 0.00 0.00 0.00 71 1009.4
20210619220130 80 0 0.0 1.0 0.00 0.00 0.00 72 1009.3
20210619215830 80 190 0.0 0.0 0.00 0.00 0.00 75 1009.2
20210619215532 80 0 0.0 0.0 0.00 0.00 0.00 73 1009.3
20210619215322 80 170 0.0 0.0 0.00 0.00 0.00 74 1009.3
20210619215024 80 0 0.0 0.0 0.00 0.00 0.00 75 1009.4
20210619214832 80 170 0.0 0.0 0.00 0.00 0.00 77 1009.4
20210619214557 79 0 0.0 0.0 0.00 0.00 0.00 78 1009.4
20210619214320 80 170 0.0 0.0 0.00 0.00 0.00 77 1009.4
20210619214024 79 0 0.0 0.0 0.00 0.00 0.00 76 1009.4
20210619213834 80 170 0.0 0.0 0.00 0.00 0.00 76 1009.4
20210619213524 79 0 0.0 0.0 0.00 0.00 0.00 76 1009.5
20210619213324 80 170 0.0 0.0 0.00 0.00 0.00 76 1009.5
20210619213036 79 0 0.0 0.0 0.00 0.00 0.00 75 1009.4
20210619212833 80 170 0.0 0.0 0.00 0.00 0.00 77 1009.4
20210619212527 79 0 0.0 0.0 0.00 0.00 0.00 77 1009.3
20210619212323 79 170 0.0 0.0 0.00 0.00 0.00 78 1009.3
20210619212027 79 0 0.0 0.0 0.00 0.00 0.00 78 1009.2
20210619211834 79 170 0.0 0.0 0.00 0.00 0.00 76 1009.2
20210619211625 79 0 0.0 0.0 0.00 0.00 0.00 79 1009.3
20210619211324 79 170 0.0 0.0 0.00 0.00 0.00 78 1009.3
20210619211023 79 0 0.0 0.0 0.00 0.00 0.00 78 1009.3
20210619210814 79 170 0.0 0.0 0.00 0.00 0.00 78 1009.1
20210619210525 79 0 0.0 0.0 0.00 0.00 0.00 76 1009.0
20210619210327 79 170 0.0 0.0 0.00 0.00 0.00 77 1009.0
20210619210119 79 0 0.0 0.0 0.00 0.00 0.00 75 1009.0
20210619205821 80 170 0.0 0.0 0.00 0.00 0.00 75 1009.0
20210619205524 79 0 0.0 0.0 0.00 0.00 0.00 76 1009.1
20210619205332 80 170 0.0 0.0 0.00 0.00 0.00 76 1009.2
20210619205037 79 0 0.0 0.0 0.00 0.00 0.00 75 1009.0
20210619204821 80 170 0.0 0.0 0.00 0.00 0.00 76 1009.0
20210619204540 80 0 0.0 0.0 0.00 0.00 0.00 75 1009.2
20210619204330 80 170 0.0 0.0 0.00 0.00 0.00 75 1009.0
20210619204038 80 0 0.0 0.0 0.00 0.00 0.00 75 1009.1
20210619203820 80 170 0.0 0.0 0.00 0.00 0.00 75 1009.3
20210619203530 80 0 0.0 0.0 0.00 0.00 0.00 74 1009.3
20210619203328 81 170 0.0 0.0 0.00 0.00 0.00 74 1009.3
20210619203035 80 0 0.0 0.0 0.00 0.00 0.00 73 1009.3
20210619202820 81 170 0.0 0.0 0.00 0.00 0.00 72 1009.6
20210619202524 80 0 0.0 0.0 0.00 0.00 0.00 71 1009.6
20210619202331 81 170 0.0 0.0 0.00 0.00 0.00 71 1009.5
20210619202027 80 0 0.0 0.0 0.00 0.00 0.00 72 1009.5
20210619201820 81 170 0.0 0.0 0.00 0.00 0.00 71 1009.7
20210619201539 81 0 0.0 2.0 0.00 0.00 0.00 70 1010.1
20210619201316 81 170 0.0 4.0 0.00 0.00 0.00 71 1010.3
20210619201024 81 0 0.0 6.0 0.00 0.00 0.00 69 1010.3
20210619200829 82 184 0.0 6.0 0.00 0.00 0.00 69 1010.5
20210619200524 81 0 0.0 6.0 0.00 0.00 0.00 69 1010.4
20210619200323 82 62 1.0 6.0 0.00 0.00 0.00 69 1010.6
20210619200101 81 0 0.0 4.0 0.00 0.00 0.00 70 1010.7
20210619195834 82 281 0.0 4.0 0.00 0.00 0.00 70 1010.7
20210619195526 82 0 0.0 4.0 0.00 0.00 0.00 69 1010.8
20210619195324 82 151 0.0 4.0 0.00 0.00 0.00 69 1010.8
20210619195032 81 0 0.0 5.0 0.00 0.00 0.00 70 1010.7
20210619194835 82 355 0.0 5.0 0.00 0.00 0.00 71 1010.7
20210619194600 81 0 0.0 5.0 0.00 0.00 0.00 71 1010.7
20210619194325 82 173 0.0 5.0 0.00 0.00 0.00 72 1010.7
20210619194024 81 0 0.0 5.0 0.00 0.00 0.00 71 1010.8
20210619193816 81 198 0.0 2.0 0.00 0.00 0.00 71 1010.8
20210619193524 81 0 0.0 4.0 0.00 0.00 0.00 71 1010.8
20210619193333 81 280 0.0 4.0 0.00 0.00 0.00 72 1011.0
20210619193124 81 0 0.0 4.0 0.00 0.00 0.00 72 1010.9
20210619192823 81 346 0.0 4.0 0.00 0.00 0.00 71 1011.2
20210619192525 80 0 0.0 4.0 0.00 0.00 0.00 70 1011.2
20210619192313 81 181 1.0 4.0 0.00 0.00 0.00 70 1011.4
20210619192040 80 0 0.0 1.0 0.00 0.00 0.00 70 1011.3
20210619191827 81 119 0.0 1.0 0.00 0.00 0.00 70 1011.4
20210619191546 80 0 0.0 1.0 0.00 0.00 0.00 70 1011.4
20210619191316 81 208 0.0 1.0 0.00 0.00 0.00 70 1011.4
20210619191024 80 0 0.0 1.0 0.00 0.00 0.00 68 1011.3
20210619190830 81 150 0.0 1.0 0.00 0.00 0.00 70 1011.4
20210619190525 80 0 0.0 6.0 0.00 0.00 0.00 69 1011.5
20210619190320 81 93 0.0 6.0 0.00 0.00 0.00 70 1011.5
20210619190120 81 0 0.0 6.0 0.00 0.00 0.00 69 1011.5
20210619185829 81 243 0.0 6.0 0.00 0.00 0.00 69 1011.4
20210619185524 81 0 0.0 4.0 0.00 0.00 0.00 70 1011.3
20210619185325 81 204 0.0 4.0 0.00 0.00 0.00 69 1011.2
20210619185023 81 0 0.0 3.0 0.00 0.00 0.00 69 1011.1
20210619184818 81 274 0.0 3.0 0.00 0.00 0.00 71 1011.1
20210619184623 81 0 0.0 0.0 0.00 0.00 0.00 70 1011.0
20210619184326 82 100 0.0 0.0 0.00 0.00 0.00 71 1011.0
20210619184023 81 0 0.0 0.0 0.00 0.00 0.00 70 1010.9
20210619183834 82 352 0.0 0.0 0.00 0.00 0.00 71 1010.8
20210619183531 81 0 0.0 2.0 0.00 0.00 0.00 71 1010.9
20210619183326 82 351 0.0 2.0 0.00 0.00 0.00 71 1010.9
20210619183103 81 0 0.0 2.0 0.00 0.00 0.00 70 1010.9
20210619182819 82 291 0.0 2.0 0.00 0.00 0.00 70 1010.8
20210619182525 81 0 0.0 5.0 0.00 0.00 0.00 70 1010.8
20210619182329 82 163 0.0 4.0 0.00 0.00 0.00 70 1010.7
20210619182039 81 0 0.0 5.0 0.00 0.00 0.00 70 1010.8
20210619181822 82 194 0.0 4.0 0.00 0.00 0.00 69 1010.6
20210619181632 81 164 0.0 2.0 0.00 0.00 0.00 69 1010.6
20210619181332 82 273 0.0 0.0 0.00 0.00 0.00 70 1010.5
20210619181038 81 0 0.0 2.0 0.00 0.00 0.00 70 1010.5
20210619180826 81 325 0.0 2.0 0.00 0.00 0.00 73 1010.4
20210619180536 81 0 0.0 2.0 0.00 0.00 0.00 72 1010.6
20210619180337 81 169 0.0 1.0 0.00 0.00 0.00 72 1010.5
20210619180054 80 191 0.0 0.0 0.00 0.00 0.00 73 1010.7
20210619175826 81 167 0.0 0.0 0.00 0.00 0.00 72 1010.7
20210619175526 80 0 0.0 1.0 0.00 0.00 0.00 73 1010.8
20210619175320 81 167 0.0 1.0 0.00 0.00 0.00 73 1010.7
20210619175027 80 0 0.0 1.0 0.00 0.00 0.00 72 1010.9
20210619174830 81 166 0.0 1.0 0.00 0.00 0.00 72 1010.8
20210619174629 80 0 0.0 2.0 0.00 0.00 0.00 72 1010.9
20210619174323 80 158 0.0 2.0 0.00 0.00 0.00 73 1010.8
20210619174027 80 0 0.0 5.0 0.00 0.00 0.00 71 1011.0
20210619173833 80 158 0.0 4.0 0.00 0.00 0.00 72 1010.9
20210619173532 80 0 0.0 5.0 0.00 0.00 0.00 73 1011.0
20210619173326 80 149 0.0 4.0 0.00 0.00 0.00 75 1011.0
20210619173035 79 0 0.0 1.0 0.00 0.00 0.00 74 1011.0
20210619172823 80 194 0.0 0.0 0.00 0.00 0.00 74 1011.0
20210619172533 79 0 0.0 0.0 0.00 0.00 0.00 75 1011.0
20210619172333 79 194 0.0 3.0 0.00 0.00 0.00 75 1010.9
20210619172023 79 0 0.0 3.0 0.00 0.00 0.00 74 1011.0
20210619171823 79 194 0.0 3.0 0.00 0.00 0.00 75 1011.0
20210619171538 79 0 0.0 3.0 0.00 0.00 0.00 75 1011.0
20210619171317 79 173 0.0 0.0 0.00 0.00 0.00 75 1011.0
20210619171026 79 0 0.0 1.0 0.00 0.00 0.00 74 1010.9
20210619170826 79 173 0.0 1.0 0.00 0.00 0.00 75 1011.1
20210619170526 78 0 0.0 1.0 0.00 0.00 0.00 74 1011.1
20210619170317 79 173 0.0 1.0 0.00 0.00 0.00 74 1011.2
20210619170041 78 0 0.0 1.0 0.00 0.00 0.00 74 1011.1
20210619165828 79 170 0.0 1.0 0.00 0.00 0.00 75 1011.2
20210619165523 78 0 0.0 0.0 0.00 0.00 0.00 75 1011.3
20210619165317 78 235 0.0 1.0 0.00 0.00 0.00 76 1011.4
20210619165031 78 0 0.0 2.0 0.00 0.00 0.00 75 1011.2
20210619164832 78 235 0.0 2.0 0.00 0.00 0.00 76 1011.4
20210619164541 78 0 0.0 2.0 0.00 0.00 0.00 75 1011.4
20210619164322 78 190 0.0 2.0 0.00 0.00 0.00 76 1011.6
20210619164031 78 0 0.0 0.0 0.00 0.00 0.00 76 1011.4
20210619163831 78 246 0.0 0.0 0.00 0.00 0.00 76 1011.8
20210619163525 78 0 0.0 0.0 0.00 0.00 0.00 75 1011.5
20210619163320 78 246 0.0 0.0 0.00 0.00 0.00 76 1011.6
20210619163039 78 0 0.0 0.0 0.00 0.00 0.00 76 1011.4
20210619162830 78 246 0.0 0.0 0.00 0.00 0.00 76 1011.6
20210619162525 78 0 0.0 0.0 0.00 0.00 0.00 76 1011.3
20210619162324 79 249 0.0 0.0 0.00 0.00 0.00 77 1011.6
20210619162052 78 0 0.0 0.0 0.00 0.00 0.00 74 1011.4
20210619161834 79 213 0.0 0.0 0.00 0.00 0.00 75 1011.7
20210619161601 78 0 0.0 0.0 0.00 0.00 0.00 74 1011.4
20210619161324 79 213 0.0 1.0 0.00 0.00 0.00 76 1011.6
20210619161026 78 0 0.0 1.0 0.00 0.00 0.00 75 1011.4
20210619160816 79 215 0.0 1.0 0.00 0.00 0.00 73 1011.6
20210619160534 79 0 0.0 1.0 0.00 0.00 0.00 75 1011.3
20210619160327 79 227 0.0 0.0 0.00 0.00 0.00 75 1011.6
20210619160032 78 0 0.0 0.0 0.00 0.00 0.00 74 1011.4
20210619155817 79 227 0.0 0.0 0.00 0.00 0.00 75 1011.6
20210619155531 78 0 0.0 0.0 0.00 0.00 0.00 73 1011.4
20210619155327 79 227 0.0 0.0 0.00 0.00 0.00 74 1011.5
20210619155035 78 0 0.0 0.0 0.00 0.00 0.00 73 1011.2
20210619154835 79 227 0.0 0.0 0.00 0.00 0.00 73 1011.5
20210619154532 78 0 0.0 0.0 0.00 0.00 0.00 74 1011.3
20210619154322 78 227 0.0 0.0 0.00 0.00 0.00 73 1011.5
20210619154029 78 0 0.0 0.0 0.00 0.00 0.00 73 1011.3
20210619153832 78 237 0.0 0.0 0.00 0.00 0.00 74 1011.5
20210619153537 77 0 0.0 2.0 0.00 0.00 0.00 73 1011.3
20210619153321 78 240 0.0 4.0 0.00 0.00 0.00 74 1011.4
20210619153122 77 0 0.0 4.0 0.00 0.00 0.00 75 1011.3
20210619152831 77 197 0.0 4.0 0.00 0.00 0.00 75 1011.5
20210619152523 77 0 0.0 4.0 0.00 0.00 0.00 75 1011.3
20210619152325 77 181 0.0 1.0 0.00 0.00 0.00 76 1011.6
20210619152026 76 0 0.0 1.0 0.00 0.00 0.00 76 1011.4
20210619151816 76 179 0.0 1.0 0.00 0.00 0.00 77 1011.7
20210619151600 76 0 0.0 1.0 0.00 0.00 0.00 77 1011.3
20210619151326 76 196 0.0 1.0 0.00 0.00 0.00 78 1011.5
20210619151029 75 0 0.0 0.0 0.00 0.00 0.00 79 1011.3
20210619150817 76 197 0.0 0.0 0.00 0.00 0.00 79 1011.4
20210619150533 75 0 0.0 0.0 0.00 0.00 0.00 78 1011.2
20210619150327 75 197 0.0 0.0 0.00 0.00 0.00 80 1011.4
20210619150037 74 0 0.0 0.0 0.00 0.00 0.00 78 1011.2
20210619145817 75 198 0.0 0.0 0.00 0.00 0.00 80 1011.4
20210619145526 74 0 0.0 0.0 0.00 0.00 0.00 79 1011.2
20210619145327 75 198 0.0 0.0 0.00 0.00 0.00 80 1011.4
20210619145025 74 0 0.0 0.0 0.00 0.00 0.00 79 1011.3
20210619144818 75 198 0.0 0.0 0.00 0.00 0.00 80 1011.4
20210619144628 74 0 0.0 1.0 0.00 0.00 0.00 80 1011.3
20210619144327 74 198 0.0 1.0 0.00 0.00 0.00 79 1011.4
20210619144029 74 0 0.0 1.0 0.00 0.00 0.00 80 1011.3
20210619143835 74 187 0.0 1.0 0.00 0.00 0.00 81 1011.5
20210619143527 74 0 0.0 0.0 0.00 0.00 0.00 79 1011.3
20210619143325 74 208 0.0 0.0 0.00 0.00 0.00 79 1011.4
20210619143052 74 0 0.0 0.0 0.00 0.00 0.00 79 1011.2
20210619142818 74 208 0.0 0.0 0.00 0.00 0.00 80 1011.3
20210619142529 73 0 0.0 0.0 0.00 0.00 0.00 78 1011.2
20210619142328 74 208 0.0 0.0 0.00 0.00 0.00 79 1011.4
20210619142048 73 0 0.0 0.0 0.00 0.00 0.00 78 1011.3
20210619141818 74 208 0.0 0.0 0.00 0.00 0.00 80 1011.6
20210619141544 73 0 0.0 0.0 0.00 0.00 0.00 80 1011.2
20210619141326 73 208 0.0 0.0 0.00 0.00 0.00 80 1011.5
20210619141026 73 0 0.0 0.0 0.00 0.00 0.00 79 1011.3
20210619140816 73 208 0.0 0.0 0.00 0.00 0.00 80 1011.4
20210619140526 73 0 0.0 0.0 0.00 0.00 0.00 79 1011.3
20210619140326 73 208 0.0 0.0 0.00 0.00 0.00 80 1011.5
20210619140128 73 0 0.0 0.0 0.00 0.00 0.00 81 1011.2
20210619135818 73 208 0.0 0.0 0.00 0.00 0.00 82 1011.4
20210619135526 72 0 0.0 0.0 0.00 0.00 0.00 82 1011.1
20210619135332 73 208 0.0 0.0 0.00 0.00 0.00 82 1011.3
20210619135023 72 0 0.0 0.0 0.00 0.00 0.00 80 1011.1
20210619134826 73 208 0.0 0.0 0.00 0.00 0.00 82 1011.4
20210619134604 72 0 0.0 0.0 0.00 0.00 0.00 81 1011.2
20210619134335 73 208 0.0 0.0 0.00 0.00 0.00 81 1011.4
20210619134026 72 0 0.0 0.0 0.00 0.00 0.00 81 1011.1
20210619133825 73 208 0.0 0.0 0.00 0.00 0.00 81 1011.3